Time;durP1;ratioP1;P1;durP2;ratioP2;P2;SDS_P1;SDS_P2;PMS_P1;PMS_P2;Temp;Humidity;BMP_temperature;BMP_pressure;BME280_temperature;BME280_humidity;BME280_pressure;Samples;Min_cycle;Max_cycle;Signal;HPM_P1;HPM_P2
2022/09/25 00:00:48;;;;;;;9.63;1.55;;;;;;;11.25;100.00;101241.31;2073362;28;20046;-72
2022/09/25 00:01:49;;;;;;;10.00;1.48;;;;;;;11.25;100.00;101238.63;2072298;28;37206;-72
2022/09/25 00:02:51;;;;;;;12.27;1.58;;;;;;;11.25;100.00;101244.00;2072448;28;29418;-72
2022/09/25 00:03:53;;;;;;;10.10;1.50;;;;;;;11.24;100.00;101240.44;2073217;28;20776;-72
2022/09/25 00:04:54;;;;;;;9.93;1.55;;;;;;;11.24;100.00;101244.94;2072289;28;35848;-73
2022/09/25 00:06:10;;;;;;;5.30;1.08;;;;;;;11.22;100.00;101231.56;2071897;28;37893;-73
2022/09/25 00:07:12;;;;;;;10.88;1.10;;;;;;;11.22;100.00;101238.72;2072611;28;27671;-72
2022/09/25 00:08:18;;;;;;;6.65;1.45;;;;;;;11.20;100.00;101236.06;2072797;28;20926;-73
2022/09/25 00:09:22;;;;;;;8.93;1.35;;;;;;;11.20;100.00;101237.88;2072930;28;20833;-72
2022/09/25 00:10:24;;;;;;;9.60;1.40;;;;;;;11.19;100.00;101230.75;2072040;28;38730;-73
2022/09/25 00:11:29;;;;;;;7.60;1.23;;;;;;;11.19;100.00;101238.78;2072064;28;35189;-73
2022/09/25 00:12:31;;;;;;;9.40;1.85;;;;;;;11.19;100.00;101241.47;2071697;28;20034;-73
2022/09/25 00:13:36;;;;;;;10.02;1.67;;;;;;;11.18;100.00;101239.69;2072100;28;39325;-72
2022/09/25 00:14:38;;;;;;;10.95;1.27;;;;;;;11.17;100.00;101237.94;2072280;28;35712;-73
2022/09/25 00:15:50;;;;;;;11.02;1.63;;;;;;;11.16;100.00;101234.38;2072308;28;37457;-73
2022/09/25 00:16:51;;;;;;;11.88;1.83;;;;;;;11.14;100.00;101238.00;2071989;28;38909;-73
2022/09/25 00:17:53;;;;;;;8.20;1.10;;;;;;;11.14;100.00;101240.66;2072398;28;35796;-73
2022/09/25 00:20:20;;;;;;;12.38;1.50;;;;;;;11.13;100.00;101237.13;2071982;28;31388;-72
2022/09/25 00:21:28;;;;;;;14.80;1.48;;;;;;;11.13;100.00;101237.13;2063881;28;33934;-72
2022/09/25 00:22:29;;;;;;;6.18;0.95;;;;;;;11.13;100.00;101237.13;2056736;28;39653;-73
2022/09/25 00:23:33;;;;;;;16.02;1.48;;;;;;;11.12;100.00;101235.34;2064583;28;33469;-73
2022/09/25 00:24:34;;;;;;;7.90;1.30;;;;;;;11.12;100.00;101237.13;2071902;28;39842;-73
2022/09/25 00:25:36;;;;;;;14.52;1.75;;;;;;;11.11;100.00;101230.00;2072255;28;40003;-73
2022/09/25 00:26:41;;;;;;;9.82;1.35;;;;;;;11.12;100.00;101239.81;2071924;28;30308;-73
2022/09/25 00:27:44;;;;;;;10.25;1.58;;;;;;;11.11;100.00;101238.94;2072549;28;30913;-73
2022/09/25 00:28:46;;;;;;;12.15;1.20;;;;;;;11.11;100.00;101236.28;2072065;28;32890;-73
2022/09/25 00:29:48;;;;;;;11.65;0.85;;;;;;;11.11;100.00;101236.28;2072671;28;31070;-74
2022/09/25 00:30:49;;;;;;;9.48;1.30;;;;;;;11.11;100.00;101238.03;2071877;28;31722;-72
2022/09/25 00:31:54;;;;;;;7.05;1.10;;;;;;;11.10;100.00;101233.63;2072071;28;36087;-74
2022/09/25 00:32:56;;;;;;;10.45;1.33;;;;;;;11.10;100.00;101238.97;2063122;28;34737;-73
2022/09/25 00:34:00;;;;;;;12.95;1.33;;;;;;;11.08;100.00;101234.50;2063877;28;37634;-74
2022/09/25 00:35:04;;;;;;;8.68;1.48;;;;;;;11.10;100.00;101233.63;2071302;28;37406;-73
2022/09/25 00:36:09;;;;;;;11.77;1.30;;;;;;;11.08;100.00;101234.50;2063003;28;42799;-73
2022/09/25 00:37:11;;;;;;;8.18;1.05;;;;;;;11.07;100.00;101231.88;2056503;28;29223;-74
2022/09/25 00:38:12;;;;;;;12.20;1.40;;;;;;;11.08;100.00;101242.56;2063617;28;38949;-74
2022/09/25 00:39:14;;;;;;;12.20;1.52;;;;;;;11.07;100.00;101234.53;2071849;28;33841;-73
2022/09/25 00:40:16;;;;;;;11.65;1.60;;;;;;;11.06;100.00;101233.66;2072294;28;34509;-72
2022/09/25 00:41:22;;;;;;;9.48;1.23;;;;;;;11.05;100.00;101234.59;2063112;28;33143;-73
2022/09/25 00:42:24;;;;;;;7.50;1.02;;;;;;;11.05;100.00;101237.28;2056493;28;37648;-73
2022/09/25 00:43:43;;;;;;;5.93;0.70;;;;;;;11.05;100.00;101236.38;2063705;28;38323;-74
2022/09/25 00:45:00;;;;;;;6.70;0.98;;;;;;;11.03;100.00;101225.69;2072927;28;20039;-73
2022/09/25 00:46:17;;;;;;;7.28;1.20;;;;;;;11.04;100.00;101234.63;2072398;28;31656;-73
2022/09/25 00:47:28;;;;;;;9.27;1.38;;;;;;;11.02;100.00;101231.97;2072086;28;31955;-73
2022/09/25 00:48:30;;;;;;;9.82;1.30;;;;;;;11.02;100.00;101226.63;2055238;28;40601;-73
2022/09/25 00:49:31;;;;;;;4.95;0.70;;;;;;;11.02;100.00;101225.75;2056392;28;32096;-73
2022/09/25 00:50:52;;;;;;;8.93;0.98;;;;;;;11.02;100.00;101229.28;2072239;28;34116;-73
2022/09/25 00:52:02;;;;;;;11.50;1.10;;;;;;;11.00;100.00;101228.44;2063779;28;22456;-73
2022/09/25 00:53:30;;;;;;;8.02;1.17;;;;;;;11.00;100.00;101235.56;2068057;28;20069;-73
2022/09/25 00:55:04;;;;;;;8.82;1.10;;;;;;;10.99;100.00;101234.69;2071580;28;42497;-73
2022/09/25 00:56:09;;;;;;;11.65;1.10;;;;;;;10.99;100.00;101234.69;2071473;28;31335;-73
2022/09/25 00:57:18;;;;;;;12.85;1.17;;;;;;;10.98;100.00;101238.31;2072512;28;20145;-74
2022/09/25 00:58:28;;;;;;;10.63;1.10;;;;;;;10.97;100.00;101225.81;2072737;28;20830;-73
2022/09/25 00:59:38;;;;;;;17.20;1.05;;;;;;;10.98;100.00;101235.63;2063290;28;35973;-73
2022/09/25 01:00:40;;;;;;;16.67;1.55;;;;;;;10.96;100.00;101234.75;2057272;28;39330;-73
2022/09/25 01:01:43;;;;;;;12.90;1.17;;;;;;;10.97;100.00;101231.19;2063991;28;36420;-73
2022/09/25 01:02:54;;;;;;;8.77;0.82;;;;;;;10.97;100.00;101230.31;2072562;28;20038;-73
2022/09/25 01:03:56;;;;;;;9.18;0.70;;;;;;;10.96;100.00;101234.75;2063122;28;32795;-73
2022/09/25 01:05:05;;;;;;;8.57;0.95;;;;;;;10.96;100.00;101232.06;2056624;28;32128;-73
2022/09/25 01:06:07;;;;;;;10.00;0.88;;;;;;;10.95;100.00;101235.69;2056360;28;32969;-73
2022/09/25 01:07:09;;;;;;;10.18;1.20;;;;;;;10.94;100.00;101231.22;2056691;28;37827;-73
2022/09/25 01:08:20;;;;;;;7.30;1.08;;;;;;;10.94;100.00;101230.34;2062848;28;40334;-73
2022/09/25 01:09:22;;;;;;;7.20;1.10;;;;;;;10.93;100.00;101233.94;2063129;28;33607;-74
2022/09/25 01:10:25;;;;;;;9.73;0.98;;;;;;;10.92;100.00;101230.38;2064517;28;34481;-73
2022/09/25 01:11:29;;;;;;;7.97;0.75;;;;;;;10.92;100.00;101234.88;2071433;28;39937;-74
2022/09/25 01:12:32;;;;;;;10.45;0.95;;;;;;;10.90;100.00;101237.56;2071087;28;38901;-74
2022/09/25 01:13:37;;;;;;;6.80;0.68;;;;;;;10.90;100.00;101240.25;2072244;28;31402;-74
2022/09/25 01:14:41;;;;;;;9.20;0.75;;;;;;;10.90;100.00;101234.88;2071738;28;32483;-74
2022/09/25 01:16:11;;;;;;;10.60;0.98;;;;;;;10.89;100.00;101234.03;2062991;28;37349;-73
2022/09/25 01:17:49;;;;;;;12.05;1.10;;;;;;;10.89;100.00;101233.13;2060215;28;20081;-74
2022/09/25 01:19:31;;;;;;;13.85;1.10;;;;;;;10.87;100.00;101229.59;2062905;28;31887;-73
2022/09/25 01:20:57;;;;;;;14.32;1.15;;;;;;;10.85;100.00;101231.41;2071737;28;34767;-73
2022/09/25 01:22:32;;;;;;;8.60;0.80;;;;;;;10.85;100.00;101232.28;2072186;28;34973;-73
2022/09/25 01:23:58;;;;;;;11.07;1.17;;;;;;;10.84;100.00;101240.38;2071899;28;31812;-73
2022/09/25 01:25:43;;;;;;;10.50;1.48;;;;;;;10.84;100.00;101241.25;2071782;28;36532;-73
2022/09/25 01:27:28;;;;;;;5.60;0.52;;;;;;;10.83;100.00;101238.59;2062802;28;36076;-73
2022/09/25 01:29:07;;;;;;;10.95;0.82;;;;;;;10.82;100.00;101243.09;2072065;28;34357;-73
2022/09/25 01:30:19;;;;;;;7.57;0.95;;;;;;;10.82;100.00;101240.41;2072149;28;35816;-74
2022/09/25 01:32:05;;;;;;;10.63;1.20;;;;;;;10.81;100.00;101240.44;2071941;28;31406;-73
2022/09/25 01:33:15;;;;;;;7.55;0.80;;;;;;;10.80;100.00;101234.19;2062669;28;40666;-73
2022/09/25 01:34:27;;;;;;;10.68;0.85;;;;;;;10.81;100.00;101241.31;2061241;28;20039;-73
2022/09/25 01:35:56;;;;;;;11.35;0.85;;;;;;;10.81;100.00;101237.75;2058211;28;34399;-73
2022/09/25 01:37:25;;;;;;;7.75;1.02;;;;;;;10.78;100.00;101240.47;2068154;28;25894;-73
2022/09/25 01:39:01;;;;;;;8.85;1.33;;;;;;;10.80;100.00;101238.66;2063924;28;36925;-73
2022/09/25 01:41:00;;;;;;;10.02;0.98;;;;;;;10.78;100.00;101230.63;2071301;28;34743;-74
2022/09/25 01:42:17;;;;;;;11.43;0.95;;;;;;;10.79;100.00;101231.53;2038730;28;31512;-73
2022/09/25 01:43:32;;;;;;;5.95;0.65;;;;;;;10.78;100.00;101229.75;2030810;29;29685;-73
2022/09/25 01:44:45;;;;;;;9.20;0.88;;;;;;;10.78;100.00;101229.75;2053918;28;37502;-73
2022/09/25 01:45:58;;;;;;;11.93;0.80;;;;;;;10.78;100.00;101235.13;2071145;28;35481;-73
2022/09/25 01:47:17;;;;;;;9.82;0.80;;;;;;;10.76;100.00;101237.81;2062939;28;37769;-74
2022/09/25 01:48:26;;;;;;;9.60;0.80;;;;;;;10.77;100.00;101238.72;2058687;28;33412;-73
2022/09/25 01:49:34;;;;;;;10.05;1.17;;;;;;;10.75;100.00;101237.84;2057513;28;20114;-74
2022/09/25 01:50:58;;;;;;;6.75;0.80;;;;;;;10.75;100.00;101235.16;2056783;28;38558;-74
2022/09/25 01:52:06;;;;;;;5.85;0.73;;;;;;;10.74;100.00;101230.75;2059383;28;20047;-73
2022/09/25 01:53:14;;;;;;;4.15;0.68;;;;;;;10.72;100.00;101236.13;2058507;28;37111;-73
2022/09/25 01:54:32;;;;;;;9.80;1.05;;;;;;;10.71;100.00;101229.00;2056638;28;32218;-73
2022/09/25 01:55:45;;;;;;;13.57;1.00;;;;;;;10.69;100.00;101237.09;2058312;28;36501;-73
2022/09/25 01:57:08;;;;;;;6.95;0.85;;;;;;;10.67;100.00;101238.88;2058044;28;36132;-73
2022/09/25 01:58:23;;;;;;;7.18;0.77;;;;;;;10.66;100.00;101239.81;2058822;28;33898;-73
2022/09/25 01:59:36;;;;;;;8.90;0.65;;;;;;;10.64;100.00;101241.63;2058684;28;20051;-73
2022/09/25 02:00:46;;;;;;;7.85;0.80;;;;;;;10.63;100.00;101239.84;2056197;28;20051;-73
2022/09/25 02:01:51;;;;;;;8.20;0.80;;;;;;;10.63;100.00;101238.97;2056961;28;35078;-74
2022/09/25 02:03:07;;;;;;;11.35;0.88;;;;;;;10.61;100.00;101233.66;2055826;28;32736;-72
2022/09/25 02:04:20;;;;;;;8.18;0.70;;;;;;;10.59;100.00;101232.81;2066110;28;33992;-73
2022/09/25 02:05:45;;;;;;;8.20;0.70;;;;;;;10.58;100.00;101233.69;2070897;28;38135;-72
2022/09/25 02:06:50;;;;;;;10.02;1.02;;;;;;;10.56;100.00;101240.00;2062429;28;37465;-72
2022/09/25 02:07:59;;;;;;;9.30;0.60;;;;;;;10.55;100.00;101241.81;2062967;28;36974;-72
2022/09/25 02:09:14;;;;;;;6.30;0.70;;;;;;;10.52;100.00;101233.81;2064801;28;20062;-72
2022/09/25 02:10:22;;;;;;;12.07;1.17;;;;;;;10.49;100.00;101228.50;2071416;28;36831;-72
2022/09/25 02:11:30;;;;;;;9.45;0.57;;;;;;;10.47;100.00;101233.88;2063175;28;20047;-72
2022/09/25 02:12:45;;;;;;;12.75;1.27;;;;;;;10.46;100.00;101236.59;2062671;28;32080;-74
2022/09/25 02:13:57;;;;;;;8.77;0.85;;;;;;;10.44;100.00;101235.75;2063111;28;29995;-72
2022/09/25 02:15:08;;;;;;;8.65;0.95;;;;;;;10.42;100.00;101237.56;2062830;28;35244;-72
2022/09/25 02:16:32;;;;;;;8.82;0.73;;;;;;;10.40;100.00;101234.91;2065629;28;40720;-72
2022/09/25 02:20:36;;;;;;;8.70;0.77;;;;;;;10.35;100.00;101241.25;2062107;28;30358;-72
2022/09/25 02:22:08;;;;;;;9.52;0.80;;;;;;;10.32;100.00;101236.84;2065873;28;35456;-72
2022/09/25 02:23:38;;;;;;;11.13;0.70;;;;;;;10.31;100.00;101240.44;2071650;28;37390;-72
2022/09/25 02:24:47;;;;;;;5.70;0.73;;;;;;;10.29;100.00;101243.09;2071667;28;40007;-72
2022/09/25 02:26:08;;;;;;;14.52;1.08;;;;;;;10.30;100.00;101234.16;2062883;28;32364;-73
2022/09/25 02:27:10;;;;;;;8.13;0.70;;;;;;;10.28;100.00;101229.72;2065916;28;39999;-73
2022/09/25 02:28:11;;;;;;;10.15;1.13;;;;;;;10.27;100.00;101239.56;2072136;28;20034;-72
2022/09/25 02:29:14;;;;;;;8.00;0.70;;;;;;;10.28;100.00;101235.09;2071217;28;36656;-71
2022/09/25 02:30:16;;;;;;;12.75;1.27;;;;;;;10.26;100.00;101243.13;2072113;28;32759;-73
2022/09/25 02:31:20;;;;;;;10.05;1.13;;;;;;;10.26;100.00;101240.47;2062150;28;40407;-73
2022/09/25 02:32:29;;;;;;;9.40;0.90;;;;;;;10.26;100.00;101235.09;2055052;28;36102;-73
2022/09/25 02:33:34;;;;;;;9.50;0.77;;;;;;;10.24;100.00;101242.28;2055873;28;37705;-73
2022/09/25 02:34:38;;;;;;;8.10;0.77;;;;;;;10.24;100.00;101239.59;2064326;28;20035;-73
2022/09/25 02:35:41;;;;;;;6.45;0.60;;;;;;;10.23;100.00;101235.19;2061617;28;30347;-73
2022/09/25 02:36:43;;;;;;;10.98;0.90;;;;;;;10.22;100.00;101229.84;2063178;28;33989;-73
2022/09/25 02:37:45;;;;;;;11.50;0.98;;;;;;;10.23;100.00;101236.94;2071467;28;28385;-72
2022/09/25 02:38:49;;;;;;;8.18;0.98;;;;;;;10.20;100.00;101235.22;2062569;28;38396;-73
2022/09/25 02:39:59;;;;;;;8.68;0.90;;;;;;;10.20;100.00;101237.03;2063413;28;20050;-73
2022/09/25 02:41:21;;;;;;;8.77;1.05;;;;;;;10.18;100.00;101239.72;2071694;28;32117;-73
2022/09/25 02:43:26;;;;;;;11.60;1.33;;;;;;;10.17;100.00;101232.59;2071710;28;20116;-73
2022/09/25 02:45:14;;;;;;;11.00;1.00;;;;;;;10.16;100.00;101236.19;2019219;28;33962;-73
2022/09/25 02:46:37;;;;;;;8.00;0.52;;;;;;;10.17;100.00;101235.25;2071333;28;33737;-73
2022/09/25 02:48:24;;;;;;;8.93;0.98;;;;;;;10.15;100.00;101229.06;2071607;28;35623;-73
2022/09/25 02:50:12;;;;;;;10.93;0.82;;;;;;;10.14;100.00;101235.34;2071356;28;27895;-73
2022/09/25 02:51:39;;;;;;;7.22;1.00;;;;;;;10.12;100.00;101232.69;2065395;28;30070;-73
2022/09/25 02:53:07;;;;;;;12.32;1.35;;;;;;;10.12;100.00;101237.13;2062327;28;39160;-73
2022/09/25 02:54:17;;;;;;;10.07;0.80;;;;;;;10.12;100.00;101234.44;2067893;28;38242;-74
2022/09/25 02:55:34;;;;;;;9.57;1.05;;;;;;;10.10;100.00;101234.50;2071685;28;37389;-73
2022/09/25 02:57:11;;;;;;;12.48;1.08;;;;;;;10.09;100.00;101237.19;2071098;28;40377;-74
2022/09/25 02:58:18;;;;;;;13.00;1.48;;;;;;;10.08;100.00;101232.75;2063124;28;20062;-73
2022/09/25 02:59:32;;;;;;;7.80;1.08;;;;;;;10.09;100.00;101234.53;2067101;28;20838;-73
2022/09/25 03:00:46;;;;;;;13.32;1.42;;;;;;;10.07;100.00;101236.34;2062748;28;20050;-73
2022/09/25 03:01:50;;;;;;;9.68;1.42;;;;;;;10.06;100.00;101234.56;2066017;28;39101;-73
2022/09/25 03:02:58;;;;;;;10.25;0.90;;;;;;;10.06;100.00;101229.22;2063073;28;20121;-73
2022/09/25 03:04:03;;;;;;;11.50;1.20;;;;;;;10.06;100.00;101229.22;2056295;28;31405;-73
2022/09/25 03:05:09;;;;;;;5.95;0.95;;;;;;;10.05;100.00;101232.78;2055005;28;35190;-73
2022/09/25 03:06:10;;;;;;;14.68;1.67;;;;;;;10.04;100.00;101236.38;2056758;28;20046;-73
2022/09/25 03:07:14;;;;;;;9.13;1.40;;;;;;;10.02;100.00;101231.06;2062634;28;34295;-73
2022/09/25 03:08:37;;;;;;;11.15;1.38;;;;;;;10.02;100.00;101231.06;2063548;28;20105;-72
2022/09/25 03:09:42;;;;;;;11.15;1.35;;;;;;;10.03;100.00;101237.28;2066009;28;32403;-73
2022/09/25 03:10:45;;;;;;;14.65;1.30;;;;;;;10.00;100.00;101229.31;2072137;28;20070;-73
2022/09/25 03:11:47;;;;;;;7.18;1.02;;;;;;;10.01;100.00;101236.44;2062573;28;29602;-73
2022/09/25 03:12:49;;;;;;;8.95;1.05;;;;;;;10.01;100.00;101236.44;2062768;28;36390;-73
2022/09/25 03:13:57;;;;;;;7.97;1.58;;;;;;;9.99;100.00;101232.91;2071408;28;31368;-73
2022/09/25 03:14:58;;;;;;;9.95;1.00;;;;;;;10.00;100.00;101234.69;2070902;28;35875;-73
2022/09/25 03:16:19;;;;;;;11.65;0.95;;;;;;;9.99;100.00;101235.56;2062804;28;27792;-73
2022/09/25 03:17:24;;;;;;;11.63;0.90;;;;;;;9.98;100.00;101237.38;2065156;28;31559;-73
2022/09/25 03:18:27;;;;;;;9.30;0.82;;;;;;;9.98;100.00;101236.47;2063402;28;20832;-73
2022/09/25 03:19:30;;;;;;;12.38;1.10;;;;;;;9.98;100.00;101239.13;2054164;28;40473;-73
2022/09/25 03:20:34;;;;;;;7.32;0.93;;;;;;;9.98;100.00;101237.38;2055427;28;20106;-73
2022/09/25 03:21:36;;;;;;;7.70;1.02;;;;;;;9.98;100.00;101233.78;2054557;28;34360;-74
2022/09/25 03:22:38;;;;;;;9.02;1.02;;;;;;;9.98;100.00;101240.03;2054837;28;32628;-73
2022/09/25 03:23:40;;;;;;;9.10;1.15;;;;;;;9.98;100.00;101233.78;2062744;28;31120;-73
2022/09/25 03:24:41;;;;;;;7.72;0.80;;;;;;;9.95;100.00;101234.72;2071090;28;37980;-73
2022/09/25 03:25:43;;;;;;;9.43;0.80;;;;;;;9.95;100.00;101234.72;2071006;28;34437;-73
2022/09/25 03:26:54;;;;;;;7.82;0.82;;;;;;;9.96;100.00;101239.19;2071869;28;20039;-72
2022/09/25 03:27:56;;;;;;;11.15;1.10;;;;;;;9.96;100.00;101232.94;2070907;28;37565;-73
2022/09/25 03:29:01;;;;;;;8.20;0.80;;;;;;;9.94;100.00;101233.88;2071167;28;38097;-73
2022/09/25 03:30:04;;;;;;;9.52;0.93;;;;;;;9.95;100.00;101234.72;2070888;28;28221;-73
2022/09/25 03:31:10;;;;;;;11.45;1.10;;;;;;;9.93;100.00;101237.44;2071349;28;28324;-73
2022/09/25 03:32:13;;;;;;;8.63;1.10;;;;;;;9.92;100.00;101238.34;2070876;28;35862;-73
2022/09/25 03:33:16;;;;;;;8.50;0.93;;;;;;;9.91;100.00;101236.56;2071420;28;30811;-73
2022/09/25 03:34:19;;;;;;;8.93;0.85;;;;;;;9.91;100.00;101225.00;2070659;28;38290;-73
2022/09/25 03:35:21;;;;;;;7.60;0.82;;;;;;;9.91;100.00;101231.22;2071036;28;33138;-72
2022/09/25 03:36:26;;;;;;;11.55;0.93;;;;;;;9.91;100.00;101231.22;2070647;28;30966;-72
2022/09/25 03:37:28;;;;;;;9.15;0.93;;;;;;;9.90;100.00;101224.09;2071258;28;22322;-73
2022/09/25 03:38:33;;;;;;;11.77;0.90;;;;;;;9.89;100.00;101221.47;2070934;28;36715;-73
2022/09/25 03:39:34;;;;;;;7.45;0.75;;;;;;;9.89;100.00;101226.81;2071408;28;31489;-73
2022/09/25 03:40:36;;;;;;;8.98;0.68;;;;;;;9.86;100.00;101225.06;2070888;28;35570;-73
2022/09/25 03:41:38;;;;;;;9.05;1.17;;;;;;;9.86;100.00;101224.19;2071050;28;36217;-73
2022/09/25 03:42:39;;;;;;;8.27;0.90;;;;;;;9.84;100.00;101221.53;2070881;28;37952;-73
2022/09/25 03:43:42;;;;;;;12.18;1.08;;;;;;;9.84;100.00;101226.00;2071294;28;34931;-74
2022/09/25 03:44:44;;;;;;;10.73;0.70;;;;;;;9.82;100.00;101223.34;2071549;28;29219;-73
2022/09/25 03:45:46;;;;;;;10.35;1.13;;;;;;;9.82;100.00;101223.34;2071328;28;31188;-73
2022/09/25 03:46:47;;;;;;;7.80;0.80;;;;;;;9.83;100.00;101226.91;2071269;28;39121;-73
2022/09/25 03:47:49;;;;;;;6.18;0.93;;;;;;;9.79;100.00;101218.03;2072605;28;36907;-72
2022/09/25 03:48:52;;;;;;;5.10;0.90;;;;;;;9.80;100.00;101226.94;2071999;28;39011;-72
2022/09/25 03:49:54;;;;;;;7.88;1.05;;;;;;;9.78;100.00;101228.75;2072052;28;34910;-72
2022/09/25 03:51:00;;;;;;;13.88;1.45;;;;;;;9.74;100.00;101223.47;2072366;28;20046;-74
2022/09/25 03:52:01;;;;;;;9.65;1.48;;;;;;;9.74;100.00;101222.56;2072552;28;33832;-73
2022/09/25 03:53:04;;;;;;;9.88;0.90;;;;;;;9.72;100.00;101225.25;2072219;28;37015;-73
2022/09/25 03:54:05;;;;;;;10.73;1.00;;;;;;;9.72;100.00;101227.94;2072536;28;40124;-74
2022/09/25 03:55:10;;;;;;;9.82;0.70;;;;;;;9.70;100.00;101227.06;2071960;28;36175;-73
2022/09/25 03:56:17;;;;;;;8.07;0.98;;;;;;;9.70;100.00;101221.72;2072380;28;34064;-74
2022/09/25 03:57:18;;;;;;;9.95;1.00;;;;;;;9.68;100.00;101228.88;2072460;28;38725;-73
2022/09/25 03:58:20;;;;;;;8.27;0.70;;;;;;;9.66;100.00;101232.50;2072504;28;37878;-72
2022/09/25 03:59:23;;;;;;;11.45;1.00;;;;;;;9.65;100.00;101217.34;2072712;28;20069;-72
2022/09/25 04:00:24;;;;;;;10.68;1.00;;;;;;;9.63;100.00;101230.75;2072653;28;33241;-73
2022/09/25 04:01:27;;;;;;;8.23;1.08;;;;;;;9.62;100.00;101220.06;2072370;28;23985;-72
2022/09/25 04:02:29;;;;;;;9.90;1.10;;;;;;;9.61;100.00;101226.34;2072232;28;32560;-72
2022/09/25 04:03:32;;;;;;;8.32;1.02;;;;;;;9.59;100.00;101229.03;2072161;28;35572;-72
2022/09/25 04:04:36;;;;;;;13.50;1.30;;;;;;;9.59;100.00;101229.03;2063674;28;36150;-73
2022/09/25 04:05:38;;;;;;;8.93;1.00;;;;;;;9.59;100.00;101230.84;2063820;28;25808;-72
2022/09/25 04:06:39;;;;;;;9.73;1.00;;;;;;;9.56;100.00;101229.06;2073141;28;33464;-72
2022/09/25 04:07:41;;;;;;;10.50;1.15;;;;;;;9.57;100.00;101224.63;2072439;28;25147;-72
2022/09/25 04:08:44;;;;;;;10.35;1.00;;;;;;;9.55;100.00;101232.66;2072682;28;32978;-72
2022/09/25 04:09:46;;;;;;;9.70;1.00;;;;;;;9.54;100.00;101230.88;2063105;28;35984;-72
2022/09/25 04:10:48;;;;;;;9.80;0.98;;;;;;;9.53;100.00;101226.47;2064177;28;35067;-72
2022/09/25 04:11:49;;;;;;;6.85;0.80;;;;;;;9.54;100.00;101226.41;2072066;28;37551;-74
2022/09/25 04:12:56;;;;;;;5.70;0.70;;;;;;;9.54;100.00;101230.88;2072074;28;39991;-71
2022/09/25 04:13:58;;;;;;;8.95;0.85;;;;;;;9.53;100.00;101230.00;2072090;28;33128;-72
2022/09/25 04:15:00;;;;;;;9.30;1.40;;;;;;;9.53;100.00;101229.13;2072391;28;38348;-72
2022/09/25 04:16:05;;;;;;;8.38;0.90;;;;;;;9.51;100.00;101223.81;2072007;28;36718;-72
2022/09/25 04:17:06;;;;;;;10.63;1.65;;;;;;;9.52;100.00;101236.25;2072027;28;36798;-71
2022/09/25 04:18:08;;;;;;;6.80;0.88;;;;;;;9.52;100.00;101227.34;2072733;28;20042;-72
2022/09/25 04:19:14;;;;;;;9.70;1.00;;;;;;;9.52;100.00;101222.00;2072611;28;30934;-72
2022/09/25 04:20:16;;;;;;;8.35;1.27;;;;;;;9.51;100.00;101217.53;2072813;28;31584;-73
2022/09/25 04:21:17;;;;;;;11.25;1.20;;;;;;;9.50;100.00;101224.69;2073011;28;20042;-72
2022/09/25 04:22:19;;;;;;;10.60;1.40;;;;;;;9.49;100.00;101225.63;2072158;28;32837;-72
2022/09/25 04:23:21;;;;;;;10.10;1.05;;;;;;;9.48;100.00;101229.19;2073035;28;23615;-71
2022/09/25 04:25:44;;;;;;;;;;;;;;;9.45;100.00;101231.00;2072772;28;34073;-73
2022/09/25 04:26:46;;;;;;;13.45;1.55;;;;;;;9.44;100.00;101229.22;2072757;28;19991;-73
2022/09/25 04:27:48;;;;;;;8.95;1.05;;;;;;;9.44;100.00;101226.56;2071860;28;34356;-73
2022/09/25 04:28:50;;;;;;;11.70;1.10;;;;;;;9.44;100.00;101224.78;2071897;28;39418;-71
2022/09/25 04:29:52;;;;;;;8.88;1.23;;;;;;;9.44;100.00;101224.78;2073308;28;20038;-73
2022/09/25 04:30:53;;;;;;;7.85;0.95;;;;;;;9.43;100.00;101233.69;2071840;28;35789;-73
2022/09/25 04:34:40;;;;;;;9.82;1.20;;;;;;;9.41;100.00;101223.94;2071883;28;39230;-72
2022/09/25 04:35:41;;;;;;;8.80;1.17;;;;;;;9.40;100.00;101224.84;2072162;28;37620;-72
2022/09/25 04:36:43;;;;;;;10.52;1.27;;;;;;;9.41;100.00;101216.81;2071959;28;35835;-72
2022/09/25 04:37:45;;;;;;;10.52;1.30;;;;;;;9.41;100.00;101224.81;2072614;28;30030;-72
2022/09/25 04:38:47;;;;;;;9.80;1.30;;;;;;;9.40;100.00;101224.84;2063536;28;26502;-72
2022/09/25 04:39:49;;;;;;;7.47;1.25;;;;;;;9.41;100.00;101223.94;2055379;28;40786;-72
2022/09/25 04:40:50;;;;;;;6.40;1.05;;;;;;;9.41;100.00;101230.16;2063644;28;34376;-72
2022/09/25 04:41:55;;;;;;;13.02;1.38;;;;;;;9.41;100.00;101223.94;2071896;28;36603;-72
2022/09/25 04:43:02;;;;;;;13.27;0.80;;;;;;;9.41;100.00;101215.94;2072133;28;31481;-72
2022/09/25 04:44:04;;;;;;;7.85;1.08;;;;;;;9.41;100.00;101219.47;2064384;28;20094;-71
2022/09/25 04:45:06;;;;;;;16.15;1.48;;;;;;;9.41;100.00;101219.47;2064039;28;34687;-72
2022/09/25 04:46:10;;;;;;;13.05;1.17;;;;;;;9.41;100.00;101219.47;2072028;28;37174;-72
2022/09/25 04:47:17;;;;;;;8.80;1.08;;;;;;;9.40;100.00;101220.38;2071930;28;35348;-72
2022/09/25 04:48:19;;;;;;;9.63;1.08;;;;;;;9.40;100.00;101223.03;2072091;28;30229;-72
2022/09/25 04:49:20;;;;;;;10.73;1.15;;;;;;;9.39;100.00;101221.28;2072714;28;20069;-72
2022/09/25 04:50:23;;;;;;;11.05;1.45;;;;;;;9.38;100.00;101216.84;2071885;28;32836;-72
2022/09/25 04:51:24;;;;;;;8.90;0.95;;;;;;;9.37;100.00;101223.09;2072048;28;33129;-72
2022/09/25 04:52:27;;;;;;;8.23;1.05;;;;;;;9.36;100.00;101222.19;2073266;28;20030;-72
2022/09/25 04:53:30;;;;;;;8.50;1.25;;;;;;;9.35;100.00;101224.91;2072197;28;20054;-72
2022/09/25 04:54:32;;;;;;;9.68;0.77;;;;;;;9.32;100.00;101219.59;2072172;28;36939;-72
2022/09/25 04:55:36;;;;;;;4.63;0.73;;;;;;;9.31;100.00;101220.50;2071498;28;32190;-72
2022/09/25 04:56:37;;;;;;;8.50;0.98;;;;;;;9.29;100.00;101227.66;2072004;28;35464;-72
2022/09/25 04:57:39;;;;;;;7.38;1.30;;;;;;;9.27;100.00;101218.78;2072703;28;20042;-72
2022/09/25 04:58:58;;;;;;;6.90;0.70;;;;;;;9.25;100.00;101223.25;2071125;28;40607;-72
2022/09/25 05:00:00;;;;;;;12.10;1.30;;;;;;;9.22;100.00;101215.28;2071935;28;39496;-72
2022/09/25 05:01:08;;;;;;;9.55;1.27;;;;;;;9.18;100.00;101215.31;2072040;28;38468;-72
2022/09/25 05:02:15;;;;;;;10.75;1.13;;;;;;;9.16;100.00;101219.78;2072088;28;38326;-72
2022/09/25 05:03:17;;;;;;;6.93;1.10;;;;;;;9.15;100.00;101225.16;2072032;28;30177;-72
2022/09/25 05:04:19;;;;;;;10.98;1.25;;;;;;;9.13;100.00;101224.28;2072710;28;20172;-72
2022/09/25 05:05:26;;;;;;;15.85;1.40;;;;;;;9.12;100.00;101219.88;2071816;28;36400;-72
2022/09/25 05:06:30;;;;;;;13.48;1.50;;;;;;;9.11;100.00;101218.09;2063260;28;36514;-72
2022/09/25 05:07:32;;;;;;;8.77;1.05;;;;;;;9.11;100.00;101218.97;2064401;28;34240;-72
2022/09/25 05:08:33;;;;;;;11.70;1.23;;;;;;;9.08;100.00;101211.00;2071453;28;35961;-71
2022/09/25 05:09:36;;;;;;;5.30;1.02;;;;;;;9.09;100.00;101217.22;2071929;28;34842;-72
2022/09/25 05:10:41;;;;;;;7.72;0.77;;;;;;;9.08;100.00;101211.00;2072209;28;33077;-72
2022/09/25 05:11:46;;;;;;;6.78;1.00;;;;;;;9.07;100.00;101216.38;2071974;28;26771;-72
2022/09/25 05:12:53;;;;;;;13.20;1.75;;;;;;;9.04;100.00;101211.94;2062803;28;41028;-72
2022/09/25 05:13:57;;;;;;;13.85;1.10;;;;;;;9.03;100.00;101210.19;2064404;28;34011;-72
2022/09/25 05:14:58;;;;;;;11.05;1.30;;;;;;;9.01;100.00;101212.00;2072413;28;35045;-72
2022/09/25 05:16:00;;;;;;;9.45;1.48;;;;;;;8.98;100.00;101218.22;2071954;28;32607;-72
2022/09/25 05:17:02;;;;;;;9.13;1.08;;;;;;;9.00;100.00;101214.66;2072099;28;35317;-72
2022/09/25 05:18:11;;;;;;;8.10;1.00;;;;;;;8.99;100.00;101216.47;2071411;28;33561;-71
2022/09/25 05:19:14;;;;;;;9.15;1.35;;;;;;;9.00;100.00;101212.88;2071895;28;32586;-71
2022/09/25 05:20:16;;;;;;;7.50;1.48;;;;;;;8.98;100.00;101209.34;2071422;28;34239;-72
2022/09/25 05:21:17;;;;;;;8.20;1.25;;;;;;;8.98;100.00;101212.88;2071965;28;36010;-72
2022/09/25 05:22:19;;;;;;;7.13;1.05;;;;;;;8.97;100.00;101224.50;2063008;28;27824;-72
2022/09/25 05:23:22;;;;;;;9.30;1.27;;;;;;;8.97;100.00;101212.91;2055147;28;38874;-72